Time;durP1;ratioP1;P1;durP2;ratioP2;P2;SDS_P1;SDS_P2;PMS_P1;PMS_P2;Temp;Humidity;BMP_temperature;BMP_pressure;BME280_temperature;BME280_humidity;BME280_pressure;Samples;Min_cycle;Max_cycle;Signal;HPM_P1;HPM_P2
2021/05/07 00:01:08;;;;;;;4.32;3.92;;;;;;;;;;5012559;28;20207;-83
2021/05/07 00:03:36;;;;;;;4.00;3.70;;;;;;;;;;5012897;28;20231;-82
2021/05/07 00:06:04;;;;;;;4.85;4.43;;;;;;;;;;5012675;28;20290;-83
2021/05/07 00:08:33;;;;;;;3.95;3.40;;;;;;;;;;4993587;28;20231;-83
2021/05/07 00:11:03;;;;;;;6.05;3.92;;;;;;;;;;5007129;28;20203;-83
2021/05/07 00:13:30;;;;;;;5.05;4.22;;;;;;;;;;4995572;28;20733;-84
2021/05/07 00:15:57;;;;;;;4.60;4.20;;;;;;;;;;4993725;28;20195;-85
2021/05/07 00:18:24;;;;;;;4.13;3.72;;;;;;;;;;4994771;28;20227;-84
2021/05/07 00:20:52;;;;;;;4.28;3.88;;;;;;;;;;4994900;28;20792;-83
2021/05/07 00:23:19;;;;;;;4.35;4.00;;;;;;;;;;4995865;28;20228;-84
2021/05/07 00:25:47;;;;;;;4.68;4.30;;;;;;;;;;4995752;28;20210;-85
2021/05/07 00:28:16;;;;;;;4.70;4.30;;;;;;;;;;4996669;28;20224;-84
2021/05/07 00:30:43;;;;;;;4.50;4.10;;;;;;;;;;4996518;28;20564;-84
2021/05/07 00:33:10;;;;;;;4.82;4.32;;;;;;;;;;4996291;28;20565;-85
2021/05/07 00:35:37;;;;;;;4.82;4.40;;;;;;;;;;4996205;28;20204;-84
2021/05/07 00:38:06;;;;;;;4.25;3.55;;;;;;;;;;4996171;28;20211;-85
2021/05/07 00:40:33;;;;;;;4.45;4.05;;;;;;;;;;4996235;28;20692;-85
2021/05/07 00:43:00;;;;;;;5.40;4.32;;;;;;;;;;4996407;28;20226;-85
2021/05/07 00:45:28;;;;;;;4.78;4.38;;;;;;;;;;4996591;28;20208;-84
2021/05/07 00:47:58;;;;;;;4.25;3.95;;;;;;;;;;4996810;28;20709;-85
2021/05/07 00:50:26;;;;;;;4.00;3.70;;;;;;;;;;4996892;28;20210;-85
2021/05/07 00:52:55;;;;;;;4.40;4.10;;;;;;;;;;4997463;28;20211;-84
2021/05/07 00:55:23;;;;;;;4.50;4.10;;;;;;;;;;4997524;28;20211;-86
2021/05/07 00:57:50;;;;;;;4.82;4.40;;;;;;;;;;5000668;28;20223;-85
2021/05/07 01:00:18;;;;;;;5.63;5.07;;;;;;;;;;5001604;28;20257;-85
2021/05/07 01:02:45;;;;;;;4.28;3.97;;;;;;;;;;5007353;28;20227;-82
2021/05/07 01:05:13;;;;;;;6.07;4.40;;;;;;;;;;5008490;28;20223;-84
2021/05/07 01:07:40;;;;;;;4.55;4.15;;;;;;;;;;5012383;28;20285;-85
2021/05/07 01:10:11;;;;;;;5.45;4.95;;;;;;;;;;5018441;28;20544;-85
2021/05/07 01:12:41;;;;;;;5.53;4.82;;;;;;;;;;5018160;28;20203;-85
2021/05/07 01:15:11;;;;;;;6.03;4.80;;;;;;;;;;5017868;28;20214;-83
2021/05/07 01:17:42;;;;;;;5.88;4.53;;;;;;;;;;5018076;28;20698;-85
2021/05/07 01:20:13;;;;;;;4.85;4.55;;;;;;;;;;5017940;28;20206;-85
2021/05/07 01:22:41;;;;;;;4.70;4.30;;;;;;;;;;5017276;28;20247;-83
2021/05/07 01:25:10;;;;;;;4.95;4.55;;;;;;;;;;5018245;28;20257;-85
2021/05/07 01:27:39;;;;;;;5.63;4.75;;;;;;;;;;5017598;28;20266;-83
2021/05/07 01:30:15;;;;;;;5.88;5.38;;;;;;;;;;5018102;28;20261;-85
2021/05/07 01:32:42;;;;;;;5.05;4.57;;;;;;;;;;5016968;28;20202;-83
2021/05/07 01:35:14;;;;;;;5.00;4.63;;;;;;;;;;5017436;28;20203;-85
2021/05/07 01:37:43;;;;;;;5.65;5.10;;;;;;;;;;5017839;28;20223;-84
2021/05/07 01:40:18;;;;;;;4.75;4.35;;;;;;;;;;5018174;28;20203;-85
2021/05/07 01:42:47;;;;;;;5.30;3.60;;;;;;;;;;5018146;28;20215;-85
2021/05/07 01:45:15;;;;;;;4.90;4.50;;;;;;;;;;5017767;28;20207;-83
2021/05/07 01:47:43;;;;;;;5.30;4.80;;;;;;;;;;5017780;28;20234;-84
2021/05/07 01:50:13;;;;;;;4.40;4.00;;;;;;;;;;5018006;28;20214;-86
2021/05/07 01:52:40;;;;;;;4.85;4.35;;;;;;;;;;5017386;28;20751;-85
2021/05/07 01:55:10;;;;;;;5.03;4.57;;;;;;;;;;5017600;28;20210;-83
2021/05/07 01:57:39;;;;;;;4.75;4.35;;;;;;;;;;5018188;28;20650;-84
2021/05/07 02:00:10;;;;;;;3.50;3.22;;;;;;;;;;5018369;28;20321;-85
2021/05/07 02:02:36;;;;;;;3.70;3.40;;;;;;;;;;5018492;28;20227;-85
2021/05/07 02:05:05;;;;;;;4.00;3.70;;;;;;;;;;5018865;28;20203;-84
2021/05/07 02:07:33;;;;;;;4.25;3.85;;;;;;;;;;5048563;22;20230;-82
2021/05/07 02:09:59;;;;;;;4.28;3.97;;;;;;;;;;5036850;28;20213;-81
2021/05/07 02:12:27;;;;;;;4.45;4.15;;;;;;;;;;5036432;28;20559;-81
2021/05/07 02:14:54;;;;;;;5.45;5.05;;;;;;;;;;5036280;28;20191;-82
2021/05/07 02:17:21;;;;;;;5.35;4.90;;;;;;;;;;5029163;28;20230;-82
2021/05/07 02:19:48;;;;;;;5.00;4.60;;;;;;;;;;5016583;28;20213;-82
2021/05/07 02:22:14;;;;;;;5.07;4.68;;;;;;;;;;5016696;28;20210;-81
2021/05/07 02:24:42;;;;;;;4.82;4.43;;;;;;;;;;5016699;28;20243;-79
2021/05/07 02:27:09;;;;;;;4.22;3.92;;;;;;;;;;5016078;28;20601;-80
2021/05/07 02:29:36;;;;;;;4.20;3.90;;;;;;;;;;5015377;28;20628;-80
2021/05/07 02:32:03;;;;;;;3.50;3.28;;;;;;;;;;5015535;28;20199;-81
2021/05/07 02:34:29;;;;;;;3.30;3.00;;;;;;;;;;5016429;28;20210;-80
2021/05/07 02:36:56;;;;;;;3.60;3.28;;;;;;;;;;5015936;28;20719;-80
2021/05/07 02:39:23;;;;;;;2.88;2.67;;;;;;;;;;5016104;28;20206;-80
2021/05/07 02:41:51;;;;;;;2.90;2.63;;;;;;;;;;5016404;28;20207;-80
2021/05/07 02:44:18;;;;;;;2.97;2.78;;;;;;;;;;5016546;28;20226;-80
2021/05/07 02:46:44;;;;;;;2.33;2.20;;;;;;;;;;5015701;28;20195;-80
2021/05/07 02:49:11;;;;;;;3.10;2.90;;;;;;;;;;5016569;28;20218;-80
2021/05/07 02:51:38;;;;;;;2.05;1.95;;;;;;;;;;5015707;28;20206;-81
2021/05/07 02:54:05;;;;;;;3.00;2.80;;;;;;;;;;5016316;28;20653;-80
2021/05/07 02:56:32;;;;;;;2.60;2.45;;;;;;;;;;5016345;28;20191;-80
2021/05/07 02:58:59;;;;;;;2.65;2.45;;;;;;;;;;5015634;28;20210;-80
2021/05/07 03:01:26;;;;;;;2.80;2.60;;;;;;;;;;5015825;28;20703;-80
2021/05/07 03:03:53;;;;;;;2.40;2.28;;;;;;;;;;5016120;28;20262;-80
2021/05/07 03:06:20;;;;;;;3.40;3.10;;;;;;;;;;5016004;28;20202;-80
2021/05/07 03:08:47;;;;;;;3.00;2.80;;;;;;;;;;5014740;28;20231;-80
2021/05/07 03:11:13;;;;;;;3.17;2.95;;;;;;;;;;5015853;28;20203;-80
2021/05/07 03:13:40;;;;;;;3.28;2.97;;;;;;;;;;5016164;28;20202;-80
2021/05/07 03:16:08;;;;;;;2.88;2.67;;;;;;;;;;5015732;28;20206;-80
2021/05/07 03:18:35;;;;;;;2.88;2.67;;;;;;;;;;5015188;28;20712;-80
2021/05/07 03:21:01;;;;;;;2.72;2.58;;;;;;;;;;5015041;28;20202;-80
2021/05/07 03:23:28;;;;;;;3.58;3.28;;;;;;;;;;5015423;28;20223;-81
2021/05/07 03:25:55;;;;;;;3.70;3.40;;;;;;;;;;5015873;28;20579;-79
2021/05/07 03:28:22;;;;;;;3.15;2.95;;;;;;;;;;5015856;28;20227;-80
2021/05/07 03:30:49;;;;;;;3.13;2.92;;;;;;;;;;5015724;28;20199;-80
2021/05/07 03:33:16;;;;;;;3.85;3.55;;;;;;;;;;5015340;28;20210;-80
2021/05/07 03:35:43;;;;;;;3.67;3.30;;;;;;;;;;5016161;28;20211;-80
2021/05/07 03:38:10;;;;;;;3.40;3.10;;;;;;;;;;5016068;28;20579;-81
2021/05/07 03:40:37;;;;;;;3.25;3.03;;;;;;;;;;5016124;28;20203;-80
2021/05/07 03:43:04;;;;;;;3.38;3.08;;;;;;;;;;5015139;28;20210;-81
2021/05/07 03:45:31;;;;;;;3.25;2.95;;;;;;;;;;5016052;28;20211;-81
2021/05/07 03:47:57;;;;;;;3.63;3.30;;;;;;;;;;5015800;28;20218;-80
2021/05/07 03:50:25;;;;;;;3.78;3.38;;;;;;;;;;5015560;28;20206;-80
2021/05/07 03:52:52;;;;;;;3.60;3.30;;;;;;;;;;5016175;28;20579;-81
2021/05/07 03:55:19;;;;;;;3.72;3.42;;;;;;;;;;5015834;28;20578;-81
2021/05/07 03:57:47;;;;;;;3.90;3.60;;;;;;;;;;5016092;28;20600;-81
2021/05/07 04:00:15;;;;;;;3.47;3.17;;;;;;;;;;5015716;28;20353;-81
2021/05/07 04:02:43;;;;;;;4.15;3.78;;;;;;;;;;5015784;28;20211;-81
2021/05/07 04:05:12;;;;;;;3.60;3.30;;;;;;;;;;5015528;28;20225;-81
2021/05/07 04:07:39;;;;;;;4.03;3.67;;;;;;;;;;5015668;28;20234;-80
2021/05/07 04:10:14;;;;;;;4.45;4.05;;;;;;;;;;5016404;28;20226;-81
2021/05/07 04:15:24;;;;;;;4.20;3.80;;;;;;;;;;5014621;28;20198;-81
2021/05/07 04:17:51;;;;;;;4.72;3.97;;;;;;;;;;5015748;28;20241;-80
2021/05/07 04:20:18;;;;;;;5.13;3.80;;;;;;;;;;5015649;28;20207;-80
2021/05/07 04:22:46;;;;;;;5.53;5.03;;;;;;;;;;5015640;28;20203;-80
2021/05/07 04:25:13;;;;;;;4.65;4.30;;;;;;;;;;5015625;28;20234;-81
2021/05/07 04:27:40;;;;;;;5.85;4.85;;;;;;;;;;5015367;28;20315;-80
2021/05/07 04:30:09;;;;;;;6.13;5.53;;;;;;;;;;5015962;28;20202;-80
2021/05/07 04:32:36;;;;;;;5.22;4.70;;;;;;;;;;5019404;28;20213;-80
2021/05/07 04:35:03;;;;;;;6.93;5.63;;;;;;;;;;5019169;28;20203;-80
2021/05/07 04:37:30;;;;;;;6.00;5.60;;;;;;;;;;5019534;28;20705;-80
2021/05/07 04:39:57;;;;;;;6.57;5.07;;;;;;;;;;5018711;28;20213;-81
2021/05/07 04:42:24;;;;;;;5.75;5.25;;;;;;;;;;5018557;28;20673;-81
2021/05/07 04:44:51;;;;;;;6.40;5.80;;;;;;;;;;5018623;28;20226;-80
2021/05/07 04:47:18;;;;;;;6.85;6.25;;;;;;;;;;5019685;28;20230;-81
2021/05/07 04:49:45;;;;;;;7.68;6.88;;;;;;;;;;5018533;28;20203;-81
2021/05/07 04:52:11;;;;;;;8.20;7.03;;;;;;;;;;5018629;28;20210;-81
2021/05/07 04:54:38;;;;;;;8.77;7.88;;;;;;;;;;5017816;28;20225;-81
2021/05/07 04:57:06;;;;;;;9.15;8.32;;;;;;;;;;5017914;28;20218;-81
2021/05/07 04:59:34;;;;;;;9.45;8.27;;;;;;;;;;5019056;28;20202;-81
2021/05/07 05:02:01;;;;;;;8.95;7.45;;;;;;;;;;5018835;28;20203;-81
2021/05/07 05:04:27;;;;;;;10.35;8.43;;;;;;;;;;5018174;28;20700;-81
2021/05/07 05:06:54;;;;;;;10.40;9.38;;;;;;;;;;5018272;28;20239;-81
2021/05/07 05:09:21;;;;;;;9.10;8.20;;;;;;;;;;5018510;28;20191;-81
2021/05/07 05:11:48;;;;;;;9.07;8.15;;;;;;;;;;5018672;28;20199;-81
2021/05/07 05:14:15;;;;;;;9.82;8.75;;;;;;;;;;5018620;28;20195;-81
2021/05/07 05:16:42;;;;;;;9.43;8.43;;;;;;;;;;5018216;28;20611;-81
2021/05/07 05:19:09;;;;;;;8.45;7.63;;;;;;;;;;5018423;28;20210;-81
2021/05/07 05:21:36;;;;;;;11.38;8.82;;;;;;;;;;5018773;28;20692;-81
2021/05/07 05:24:03;;;;;;;9.57;8.57;;;;;;;;;;5017770;28;20227;-81
2021/05/07 05:26:30;;;;;;;11.27;9.65;;;;;;;;;;5018003;28;20195;-81
2021/05/07 05:28:57;;;;;;;10.80;9.02;;;;;;;;;;5017840;28;20673;-81
2021/05/07 05:31:24;;;;;;;10.05;8.98;;;;;;;;;;5018329;28;20195;-81
2021/05/07 05:33:51;;;;;;;11.70;9.82;;;;;;;;;;5018481;28;20218;-81
2021/05/07 05:36:18;;;;;;;14.30;10.63;;;;;;;;;;5018545;28;20199;-80
2021/05/07 05:38:45;;;;;;;11.00;9.65;;;;;;;;;;5019009;28;20223;-81
2021/05/07 05:41:11;;;;;;;12.10;9.20;;;;;;;;;;5019557;28;20207;-81
2021/05/07 05:43:38;;;;;;;9.27;8.38;;;;;;;;;;5017938;28;20207;-81
2021/05/07 05:46:05;;;;;;;11.93;10.73;;;;;;;;;;5017926;28;20199;-81
2021/05/07 05:48:33;;;;;;;10.00;9.00;;;;;;;;;;5017768;28;20227;-81
2021/05/07 05:50:59;;;;;;;13.20;9.43;;;;;;;;;;5018490;28;20691;-81
2021/05/07 05:53:26;;;;;;;9.85;8.50;;;;;;;;;;5018383;28;20206;-81
2021/05/07 05:55:53;;;;;;;10.88;9.77;;;;;;;;;;5017998;28;20210;-81
2021/05/07 05:58:21;;;;;;;13.48;10.27;;;;;;;;;;5018107;28;20229;-82
2021/05/07 06:00:48;;;;;;;9.70;8.73;;;;;;;;;;5017987;28;20696;-81
2021/05/07 06:03:15;;;;;;;10.40;9.40;;;;;;;;;;5017888;28;20199;-81
2021/05/07 06:05:43;;;;;;;11.30;9.90;;;;;;;;;;5017623;28;20230;-81
2021/05/07 06:08:10;;;;;;;11.27;8.85;;;;;;;;;;5017918;28;20614;-81
2021/05/07 06:10:37;;;;;;;10.32;9.32;;;;;;;;;;5017366;28;20685;-81
2021/05/07 06:13:04;;;;;;;10.07;8.57;;;;;;;;;;5018138;28;20680;-81
2021/05/07 06:15:31;;;;;;;11.75;10.30;;;;;;;;;;5017202;28;20211;-81
2021/05/07 06:17:58;;;;;;;10.90;9.30;;;;;;;;;;5018192;28;20226;-81
2021/05/07 06:20:25;;;;;;;10.30;9.23;;;;;;;;;;5017897;28;20203;-81
2021/05/07 06:22:53;;;;;;;8.85;7.95;;;;;;;;;;5017544;28;20203;-81
2021/05/07 06:25:24;;;;;;;9.05;8.00;;;;;;;;;;5017933;28;20241;-81
2021/05/07 06:27:51;;;;;;;9.52;8.52;;;;;;;;;;5017626;28;20310;-81
2021/05/07 06:30:18;;;;;;;9.63;8.50;;;;;;;;;;5017155;28;20206;-81
2021/05/07 06:32:45;;;;;;;10.20;9.10;;;;;;;;;;5017483;28;20210;-81
2021/05/07 06:35:13;;;;;;;10.95;9.88;;;;;;;;;;5016864;28;20199;-81
2021/05/07 06:37:40;;;;;;;10.93;9.82;;;;;;;;;;5017298;28;20223;-81
2021/05/07 06:40:09;;;;;;;10.40;8.75;;;;;;;;;;5017991;28;20214;-81
2021/05/07 06:42:38;;;;;;;9.75;8.57;;;;;;;;;;5016738;28;20199;-81
2021/05/07 06:45:07;;;;;;;9.50;8.50;;;;;;;;;;5017071;28;20661;-82
2021/05/07 06:47:34;;;;;;;9.73;8.73;;;;;;;;;;5017209;28;20234;-82
2021/05/07 06:50:01;;;;;;;10.43;9.05;;;;;;;;;;5017484;28;20199;-82
2021/05/07 06:52:28;;;;;;;10.80;9.35;;;;;;;;;;5016873;28;20203;-82
2021/05/07 06:54:55;;;;;;;13.50;11.30;;;;;;;;;;5016402;28;20290;-81
2021/05/07 06:57:23;;;;;;;11.85;8.60;;;;;;;;;;5016938;28;20241;-81
2021/05/07 06:59:50;;;;;;;11.15;9.98;;;;;;;;;;5016934;28;20668;-81
2021/05/07 07:02:18;;;;;;;9.13;8.27;;;;;;;;;;5016694;28;20575;-81
2021/05/07 07:04:46;;;;;;;9.43;8.45;;;;;;;;;;5017433;28;20603;-82
2021/05/07 07:07:13;;;;;;;14.50;8.68;;;;;;;;;;5015895;28;20239;-81
2021/05/07 07:09:39;;;;;;;8.75;7.95;;;;;;;;;;5016274;28;20684;-81
2021/05/07 07:12:08;;;;;;;12.25;8.50;;;;;;;;;;5017009;28;20199;-81
2021/05/07 07:14:38;;;;;;;7.13;6.43;;;;;;;;;;5016673;28;20695;-82
2021/05/07 07:17:05;;;;;;;7.22;6.53;;;;;;;;;;5016870;28;20219;-81
2021/05/07 07:19:32;;;;;;;7.65;6.93;;;;;;;;;;5016476;28;20191;-81
2021/05/07 07:21:59;;;;;;;6.88;6.18;;;;;;;;;;5015691;28;20257;-81
2021/05/07 07:24:26;;;;;;;7.70;6.65;;;;;;;;;;5015946;28;20203;-81
2021/05/07 07:26:54;;;;;;;6.90;6.18;;;;;;;;;;5017222;28;20251;-81
2021/05/07 07:29:21;;;;;;;6.65;6.05;;;;;;;;;;5015782;28;20199;-81
2021/05/07 07:31:48;;;;;;;7.10;6.00;;;;;;;;;;5016577;28;20552;-81
2021/05/07 07:34:15;;;;;;;6.50;5.80;;;;;;;;;;5016242;28;20217;-82
2021/05/07 07:36:45;;;;;;;8.15;6.95;;;;;;;;;;5016000;28;20225;-83
2021/05/07 07:39:13;;;;;;;6.53;5.72;;;;;;;;;;5016282;28;20195;-81
2021/05/07 07:41:40;;;;;;;6.38;5.78;;;;;;;;;;5016138;28;20214;-83
2021/05/07 07:44:08;;;;;;;4.10;3.70;;;;;;;;;;5016747;28;20207;-81
2021/05/07 07:46:35;;;;;;;6.68;4.95;;;;;;;;;;5016039;28;20235;-81
2021/05/07 07:49:03;;;;;;;5.07;4.38;;;;;;;;;;5015582;28;20206;-81
2021/05/07 07:51:33;;;;;;;6.15;5.57;;;;;;;;;;5016320;28;20562;-81
2021/05/07 07:54:00;;;;;;;5.75;5.10;;;;;;;;;;5016548;28;20207;-82
2021/05/07 07:56:27;;;;;;;5.55;4.57;;;;;;;;;;5015895;28;20199;-82
2021/05/07 07:58:54;;;;;;;4.75;4.35;;;;;;;;;;5016111;28;20203;-82
2021/05/07 08:01:20;;;;;;;4.65;4.25;;;;;;;;;;5016147;28;20212;-81
2021/05/07 08:03:48;;;;;;;6.03;5.50;;;;;;;;;;5016222;28;20195;-81
2021/05/07 08:06:16;;;;;;;5.65;5.15;;;;;;;;;;5020476;28;20226;-82
2021/05/07 08:08:43;;;;;;;5.72;5.10;;;;;;;;;;5019837;28;20233;-82
2021/05/07 08:11:10;;;;;;;6.38;5.78;;;;;;;;;;5020319;28;20195;-82
2021/05/07 08:13:36;;;;;;;5.53;5.00;;;;;;;;;;5019793;28;20203;-82
2021/05/07 08:16:04;;;;;;;6.00;5.43;;;;;;;;;;5019502;28;20743;-82
2021/05/07 08:18:31;;;;;;;5.80;5.25;;;;;;;;;;5019841;28;20226;-82
2021/05/07 08:20:58;;;;;;;6.22;5.72;;;;;;;;;;5018119;28;20191;-82
2021/05/07 08:23:25;;;;;;;5.70;5.20;;;;;;;;;;5019867;28;20207;-82
2021/05/07 08:25:52;;;;;;;5.97;5.28;;;;;;;;;;5018182;28;20238;-81
2021/05/07 08:28:19;;;;;;;6.15;4.72;;;;;;;;;;5017443;28;20231;-83
2021/05/07 08:30:46;;;;;;;8.38;5.50;;;;;;;;;;5016494;28;20203;-81
2021/05/07 08:33:13;;;;;;;5.53;5.03;;;;;;;;;;5017468;28;20207;-82
2021/05/07 08:35:39;;;;;;;5.75;5.25;;;;;;;;;;5018036;28;20556;-82
2021/05/07 08:38:08;;;;;;;8.98;6.60;;;;;;;;;;5017222;28;20230;-83
2021/05/07 08:40:36;;;;;;;7.78;5.70;;;;;;;;;;5018288;28;20276;-82
2021/05/07 08:43:08;;;;;;;6.15;5.38;;;;;;;;;;5019357;28;20203;-82
2021/05/07 08:45:35;;;;;;;5.53;5.05;;;;;;;;;;5019047;28;20230;-81
2021/05/07 08:48:03;;;;;;;5.47;4.82;;;;;;;;;;5018628;28;20716;-82
2021/05/07 08:50:30;;;;;;;6.72;5.25;;;;;;;;;;5019379;28;20203;-83
2021/05/07 08:52:56;;;;;;;4.60;4.20;;;;;;;;;;5018392;28;20203;-82
2021/05/07 08:55:23;;;;;;;4.75;4.32;;;;;;;;;;5018979;28;20207;-82
2021/05/07 08:57:51;;;;;;;5.07;4.57;;;;;;;;;;5018496;28;20697;-82
2021/05/07 09:00:20;;;;;;;5.35;4.85;;;;;;;;;;5018521;28;20198;-83
2021/05/07 09:02:46;;;;;;;6.15;5.55;;;;;;;;;;5019895;28;20203;-83
2021/05/07 09:05:14;;;;;;;9.68;6.85;;;;;;;;;;5019826;28;20240;-83
2021/05/07 09:07:41;;;;;;;5.88;5.38;;;;;;;;;;5018794;28;20227;-83
2021/05/07 09:10:09;;;;;;;6.60;5.90;;;;;;;;;;5019182;28;20210;-83
2021/05/07 09:12:41;;;;;;;4.70;4.30;;;;;;;;;;5018214;28;20195;-84
2021/05/07 09:15:11;;;;;;;5.88;5.38;;;;;;;;;;5018732;28;20207;-83
2021/05/07 09:17:39;;;;;;;6.25;5.30;;;;;;;;;;5018325;28;20265;-81
2021/05/07 09:20:10;;;;;;;6.78;5.63;;;;;;;;;;5020219;28;20688;-82
2021/05/07 09:22:37;;;;;;;7.20;6.50;;;;;;;;;;5019427;28;20210;-83
2021/05/07 09:25:11;;;;;;;6.88;6.07;;;;;;;;;;5019663;28;20203;-83
2021/05/07 09:27:38;;;;;;;6.75;6.07;;;;;;;;;;5020892;28;20228;-84
2021/05/07 09:30:23;;;;;;;5.85;5.00;;;;;;;;;;5022218;28;20585;-83
2021/05/07 09:32:51;;;;;;;5.63;4.85;;;;;;;;;;5007590;28;20192;-83
2021/05/07 09:35:19;;;;;;;5.55;5.05;;;;;;;;;;5000600;28;20195;-83
2021/05/07 09:37:47;;;;;;;5.00;4.60;;;;;;;;;;5000147;28;20736;-82
2021/05/07 09:40:17;;;;;;;4.85;4.25;;;;;;;;;;5004155;28;20268;-83
2021/05/07 09:42:45;;;;;;;5.20;4.70;;;;;;;;;;5004883;28;20612;-83
2021/05/07 09:45:23;;;;;;;4.88;4.38;;;;;;;;;;5005180;28;20214;-84
2021/05/07 09:47:51;;;;;;;5.10;4.60;;;;;;;;;;5004777;28;20289;-83
2021/05/07 09:50:20;;;;;;;4.50;4.00;;;;;;;;;;5005383;28;20210;-82
2021/05/07 09:52:51;;;;;;;6.22;4.22;;;;;;;;;;5017723;28;20692;-82
2021/05/07 09:55:22;;;;;;;8.20;5.70;;;;;;;;;;5023866;28;20636;-81
2021/05/07 09:57:49;;;;;;;5.40;4.05;;;;;;;;;;5023193;28;20226;-82
2021/05/07 10:00:17;;;;;;;4.93;4.43;;;;;;;;;;5023178;28;20213;-82
2021/05/07 10:02:45;;;;;;;4.15;3.75;;;;;;;;;;5023483;28;20207;-83
2021/05/07 10:05:13;;;;;;;3.38;3.17;;;;;;;;;;5022415;28;20203;-82
2021/05/07 10:07:39;;;;;;;4.47;4.07;;;;;;;;;;5023584;28;20235;-84
2021/05/07 10:10:08;;;;;;;3.33;3.03;;;;;;;;;;5024056;28;20222;-81
2021/05/07 10:12:36;;;;;;;3.50;3.20;;;;;;;;;;5023835;28;20210;-83
2021/05/07 10:15:05;;;;;;;2.88;2.67;;;;;;;;;;5023358;28;20556;-82
2021/05/07 10:17:32;;;;;;;2.90;2.70;;;;;;;;;;5023087;28;20219;-82
2021/05/07 10:20:01;;;;;;;3.38;3.05;;;;;;;;;;5019236;28;20207;-84
2021/05/07 10:22:38;;;;;;;3.05;2.80;;;;;;;;;;5018117;28;20526;-82
2021/05/07 10:25:16;;;;;;;2.75;2.55;;;;;;;;;;5020313;28;20214;-82
2021/05/07 10:27:49;;;;;;;2.50;2.17;;;;;;;;;;5022293;28;20226;-81
2021/05/07 10:30:30;;;;;;;2.70;2.50;;;;;;;;;;5021437;28;20207;-81
2021/05/07 10:33:10;;;;;;;2.63;2.42;;;;;;;;;;5021814;28;20232;-81
2021/05/07 10:35:39;;;;;;;2.08;1.88;;;;;;;;;;5021798;28;20206;-82
2021/05/07 10:38:18;;;;;;;1.85;1.75;;;;;;;;;;5020592;28;20219;-81
2021/05/07 10:40:49;;;;;;;2.22;2.03;;;;;;;;;;5020552;28;20242;-82
2021/05/07 10:43:16;;;;;;;2.63;2.30;;;;;;;;;;5021569;28;20996;-82
2021/05/07 10:45:49;;;;;;;1.90;1.80;;;;;;;;;;5019793;28;20202;-81
2021/05/07 10:48:21;;;;;;;2.50;2.30;;;;;;;;;;5021747;28;20223;-83
2021/05/07 10:50:51;;;;;;;2.72;2.53;;;;;;;;;;5023173;28;20677;-81
2021/05/07 10:53:27;;;;;;;2.28;2.08;;;;;;;;;;5022552;28;20213;-83
2021/05/07 10:55:54;;;;;;;3.28;2.20;;;;;;;;;;5022423;28;20209;-83
2021/05/07 10:58:37;;;;;;;2.45;2.25;;;;;;;;;;5022520;28;20280;-81
2021/05/07 11:01:25;;;;;;;2.53;2.33;;;;;;;;;;5021300;28;20199;-83
2021/05/07 11:04:08;;;;;;;5.35;2.35;;;;;;;;;;5020839;28;20211;-83
2021/05/07 11:06:41;;;;;;;4.80;2.17;;;;;;;;;;5022236;28;20213;-81
2021/05/07 11:09:20;;;;;;;2.45;2.25;;;;;;;;;;5023272;28;20217;-84
2021/05/07 11:11:49;;;;;;;2.53;1.98;;;;;;;;;;5020482;28;20713;-83
2021/05/07 11:14:18;;;;;;;2.40;2.20;;;;;;;;;;5020953;28;20210;-83
2021/05/07 11:16:48;;;;;;;2.35;2.15;;;;;;;;;;5022143;28;20206;-84
2021/05/07 11:19:26;;;;;;;2.15;1.80;;;;;;;;;;5021672;28;20209;-83
2021/05/07 11:21:55;;;;;;;3.03;1.95;;;;;;;;;;5013131;28;20200;-83
2021/05/07 11:24:27;;;;;;;2.75;2.47;;;;;;;;;;5002765;28;20215;-83
2021/05/07 11:26:54;;;;;;;2.90;2.60;;;;;;;;;;5002073;28;20231;-83
2021/05/07 11:29:32;;;;;;;2.92;2.50;;;;;;;;;;5000233;28;20241;-82
2021/05/07 11:32:11;;;;;;;2.40;2.20;;;;;;;;;;5007523;28;20559;-84
2021/05/07 11:34:38;;;;;;;2.60;2.40;;;;;;;;;;5022827;28;20206;-83
2021/05/07 11:37:05;;;;;;;2.58;2.38;;;;;;;;;;5021724;28;20281;-83
2021/05/07 11:39:32;;;;;;;2.78;1.98;;;;;;;;;;5021023;28;20214;-84
2021/05/07 11:41:59;;;;;;;2.40;2.20;;;;;;;;;;5020203;28;20199;-84
2021/05/07 11:44:26;;;;;;;2.28;2.08;;;;;;;;;;5021476;28;20260;-83
2021/05/07 11:47:06;;;;;;;2.35;2.15;;;;;;;;;;5021313;28;20238;-84
2021/05/07 11:49:37;;;;;;;2.25;2.05;;;;;;;;;;5021430;28;20222;-84
2021/05/07 11:52:06;;;;;;;1.98;1.88;;;;;;;;;;5020831;28;20277;-83
2021/05/07 11:54:41;;;;;;;2.35;2.15;;;;;;;;;;5020451;28;20210;-84
2021/05/07 11:57:08;;;;;;;3.08;2.28;;;;;;;;;;5022635;28;20701;-83
2021/05/07 11:59:39;;;;;;;2.03;1.88;;;;;;;;;;5021798;28;20202;-84
2021/05/07 12:02:06;;;;;;;4.20;2.95;;;;;;;;;;5022098;28;20210;-84
2021/05/07 12:04:44;;;;;;;2.80;2.60;;;;;;;;;;5022678;28;20246;-82
2021/05/07 12:07:30;;;;;;;2.47;2.10;;;;;;;;;;5022116;28;20226;-83
2021/05/07 12:09:59;;;;;;;2.13;1.92;;;;;;;;;;5021089;28;20209;-83
2021/05/07 12:12:27;;;;;;;2.80;2.60;;;;;;;;;;5012483;28;20208;-82
2021/05/07 12:15:02;;;;;;;2.20;2.00;;;;;;;;;;4999219;28;20207;-83
2021/05/07 12:17:40;;;;;;;2.90;2.33;;;;;;;;;;5001750;28;20601;-83
2021/05/07 12:20:09;;;;;;;2.60;2.40;;;;;;;;;;5003043;28;20218;-82
2021/05/07 12:22:37;;;;;;;2.97;2.38;;;;;;;;;;5003663;28;20238;-84
2021/05/07 12:25:10;;;;;;;2.20;2.10;;;;;;;;;;5017928;28;20219;-82
2021/05/07 12:27:38;;;;;;;4.35;3.15;;;;;;;;;;5023301;28;20227;-82
2021/05/07 12:30:26;;;;;;;2.70;2.50;;;;;;;;;;5021374;28;20213;-82
2021/05/07 12:32:59;;;;;;;3.08;2.80;;;;;;;;;;5016575;28;20203;-82
2021/05/07 12:35:44;;;;;;;3.28;2.78;;;;;;;;;;5017158;28;20206;-82
2021/05/07 12:38:26;;;;;;;1.92;1.83;;;;;;;;;;5019961;28;20230;-80
2021/05/07 12:40:54;;;;;;;2.38;2.17;;;;;;;;;;5019160;28;20203;-82
2021/05/07 12:43:21;;;;;;;2.50;2.30;;;;;;;;;;5024019;28;20211;-82
2021/05/07 12:45:50;;;;;;;2.38;2.17;;;;;;;;;;5025059;28;20210;-81
2021/05/07 12:48:18;;;;;;;2.55;2.35;;;;;;;;;;5026915;28;20223;-81
2021/05/07 12:50:46;;;;;;;2.90;2.08;;;;;;;;;;5029861;28;20203;-81
2021/05/07 12:53:16;;;;;;;4.55;2.65;;;;;;;;;;5031270;28;20199;-81
2021/05/07 12:55:43;;;;;;;2.22;2.03;;;;;;;;;;5028708;28;20199;-81
2021/05/07 12:58:10;;;;;;;2.33;2.15;;;;;;;;;;5021258;28;20230;-81
2021/05/07 13:00:37;;;;;;;3.00;2.80;;;;;;;;;;5017250;28;20211;-81
2021/05/07 13:03:04;;;;;;;2.50;2.30;;;;;;;;;;5017469;28;20293;-81
2021/05/07 13:05:31;;;;;;;2.25;2.05;;;;;;;;;;5016321;28;20203;-81
2021/05/07 13:07:58;;;;;;;1.75;1.65;;;;;;;;;;5016583;28;20238;-81
2021/05/07 13:10:25;;;;;;;2.55;2.35;;;;;;;;;;5017149;28;20214;-82
2021/05/07 13:12:52;;;;;;;2.88;2.17;;;;;;;;;;5016178;28;20693;-81
2021/05/07 13:15:19;;;;;;;3.13;1.92;;;;;;;;;;5015274;28;20337;-81
2021/05/07 13:17:46;;;;;;;2.50;2.20;;;;;;;;;;5017518;28;20697;-80
2021/05/07 13:20:14;;;;;;;2.38;2.17;;;;;;;;;;5016057;28;20203;-81
2021/05/07 13:22:41;;;;;;;2.13;1.90;;;;;;;;;;5017205;28;20207;-81
2021/05/07 13:25:10;;;;;;;2.70;2.50;;;;;;;;;;5015400;28;20665;-80
2021/05/07 13:27:37;;;;;;;2.58;2.38;;;;;;;;;;5015473;28;20709;-80
2021/05/07 13:30:08;;;;;;;2.83;2.63;;;;;;;;;;5016271;28;20269;-81
2021/05/07 13:32:34;;;;;;;2.50;2.33;;;;;;;;;;5015990;28;20665;-80
2021/05/07 13:35:01;;;;;;;2.17;2.03;;;;;;;;;;5015853;28;20206;-82
2021/05/07 13:37:28;;;;;;;1.90;1.80;;;;;;;;;;5014871;28;20223;-80
2021/05/07 13:39:55;;;;;;;2.25;2.15;;;;;;;;;;5016073;28;20214;-81
2021/05/07 13:42:22;;;;;;;2.13;1.95;;;;;;;;;;5015613;28;20211;-81
2021/05/07 13:44:48;;;;;;;2.40;2.20;;;;;;;;;;5015786;28;20664;-80
2021/05/07 13:47:17;;;;;;;2.67;2.00;;;;;;;;;;5015337;28;20238;-80
2021/05/07 13:49:44;;;;;;;4.47;2.30;;;;;;;;;;5015091;28;20212;-80
2021/05/07 13:52:11;;;;;;;2.00;1.90;;;;;;;;;;5015426;28;20234;-80
2021/05/07 13:54:38;;;;;;;1.80;1.70;;;;;;;;;;5014927;28;20209;-81
2021/05/07 13:57:05;;;;;;;2.05;1.85;;;;;;;;;;5015157;28;20223;-81
2021/05/07 13:59:32;;;;;;;1.50;1.40;;;;;;;;;;5014781;28;20573;-81
2021/05/07 14:01:59;;;;;;;1.70;1.60;;;;;;;;;;5014160;28;20209;-80
2021/05/07 14:04:28;;;;;;;1.88;1.77;;;;;;;;;;5015486;28;20272;-80
2021/05/07 14:06:55;;;;;;;1.88;1.73;;;;;;;;;;5014969;28;20262;-80
2021/05/07 14:09:22;;;;;;;2.33;1.63;;;;;;;;;;5015615;28;20203;-81
2021/05/07 14:11:50;;;;;;;1.60;1.50;;;;;;;;;;5015139;28;20214;-81
2021/05/07 14:14:17;;;;;;;2.70;1.75;;;;;;;;;;5014305;28;20195;-81
2021/05/07 14:16:45;;;;;;;3.45;1.58;;;;;;;;;;5013440;28;20265;-81
2021/05/07 14:19:13;;;;;;;2.45;1.65;;;;;;;;;;5014150;28;20227;-81
2021/05/07 14:21:42;;;;;;;1.92;1.70;;;;;;;;;;5014073;28;20207;-81
2021/05/07 14:24:11;;;;;;;2.00;1.80;;;;;;;;;;5014679;28;20712;-82
2021/05/07 14:26:39;;;;;;;3.42;2.08;;;;;;;;;;5014279;28;20281;-81
2021/05/07 14:29:06;;;;;;;2.30;2.10;;;;;;;;;;5014517;28;20285;-81
2021/05/07 14:31:34;;;;;;;3.85;2.38;;;;;;;;;;5013874;28;20207;-80
2021/05/07 14:34:01;;;;;;;3.00;2.10;;;;;;;;;;5013820;28;20202;-81
2021/05/07 14:36:28;;;;;;;2.30;2.20;;;;;;;;;;5013848;28;20229;-81
2021/05/07 14:38:56;;;;;;;1.85;1.75;;;;;;;;;;5014016;28;20639;-81
2021/05/07 14:41:23;;;;;;;1.70;1.60;;;;;;;;;;5014382;28;20222;-82
2021/05/07 14:43:49;;;;;;;1.83;1.73;;;;;;;;;;5016529;28;20780;-81
2021/05/07 14:46:16;;;;;;;2.90;1.63;;;;;;;;;;5013587;28;20203;-81
2021/05/07 14:48:43;;;;;;;1.75;1.65;;;;;;;;;;5013453;28;20227;-81
2021/05/07 14:51:10;;;;;;;2.60;1.77;;;;;;;;;;5013015;28;20202;-81